createdAt,value
2022-10-17T00:01:25.808Z,18.59
2022-10-17T00:03:52.563Z,18.58
2022-10-17T00:06:19.403Z,18.57
2022-10-17T00:08:46.094Z,18.56
2022-10-17T00:11:16.973Z,18.55
2022-10-17T00:13:44.169Z,18.56
2022-10-17T00:16:11.061Z,18.55
2022-10-17T00:18:37.887Z,18.54
2022-10-17T00:21:04.836Z,18.53
2022-10-17T00:23:31.655Z,18.52
2022-10-17T00:26:03.102Z,18.52
2022-10-17T00:28:30.246Z,18.52
2022-10-17T00:31:02.112Z,18.50
2022-10-17T00:33:29.167Z,18.50
2022-10-17T00:36:09.952Z,18.48
2022-10-17T00:38:37.145Z,18.48
2022-10-17T00:41:04.352Z,18.47
2022-10-17T00:43:49.557Z,18.47
2022-10-17T00:46:16.292Z,18.47
2022-10-17T00:48:43.504Z,18.46
2022-10-17T00:51:10.273Z,18.45
2022-10-17T00:53:37.603Z,18.45
2022-10-17T00:56:04.746Z,18.44
2022-10-17T00:58:31.464Z,18.42
2022-10-17T01:00:58.662Z,18.41
2022-10-17T01:03:25.559Z,18.41
2022-10-17T01:05:52.403Z,18.41
2022-10-17T01:08:19.782Z,18.40
2022-10-17T01:11:07.398Z,18.40
2022-10-17T01:13:55.433Z,18.39
2022-10-17T01:16:32.580Z,18.38
2022-10-17T01:19:14.359Z,18.38
2022-10-17T01:21:46.281Z,18.37
2022-10-17T01:24:46.634Z,18.35
2022-10-17T01:27:13.460Z,18.43
2022-10-17T01:30:19.167Z,18.36
2022-10-17T01:32:50.327Z,18.32
2022-10-17T01:35:24.028Z,18.30
2022-10-17T01:37:59.507Z,18.29
2022-10-17T01:40:29.918Z,18.29
2022-10-17T01:43:15.296Z,18.28
2022-10-17T01:45:52.582Z,18.28
2022-10-17T01:48:26.000Z,18.26
2022-10-17T01:50:57.004Z,18.27
2022-10-17T01:53:36.423Z,18.26
2022-10-17T01:56:05.787Z,18.26
2022-10-17T01:58:40.030Z,18.23
2022-10-17T02:01:07.989Z,18.24
2022-10-17T02:03:35.202Z,18.23
2022-10-17T02:06:12.304Z,18.23
2022-10-17T02:08:47.151Z,18.22
2022-10-17T02:11:25.529Z,18.20
2022-10-17T02:13:58.311Z,18.20
2022-10-17T02:16:46.000Z,18.19
2022-10-17T02:19:34.448Z,18.18
2022-10-17T02:22:10.216Z,18.19
2022-10-17T02:24:57.088Z,18.17
2022-10-17T02:27:44.981Z,18.16
2022-10-17T02:30:19.391Z,18.14
2022-10-17T02:33:10.404Z,18.13
2022-10-17T02:35:40.322Z,18.12
2022-10-17T02:38:08.294Z,18.13
2022-10-17T02:40:44.179Z,18.11
2022-10-17T02:43:14.500Z,18.12
2022-10-17T02:45:41.844Z,18.12
2022-10-17T02:48:16.836Z,18.10
2022-10-17T02:50:57.196Z,18.09
2022-10-17T02:53:30.724Z,18.09
2022-10-17T02:56:01.028Z,18.08
2022-10-17T02:58:33.559Z,18.08
2022-10-17T03:01:01.460Z,18.06
2022-10-17T03:03:31.345Z,18.05
2022-10-17T03:06:01.379Z,18.05
2022-10-17T03:08:28.213Z,18.03
2022-10-17T03:10:56.029Z,18.03
2022-10-17T03:13:23.255Z,18.03
2022-10-17T03:15:50.375Z,18.01
2022-10-17T03:18:17.416Z,18.02
2022-10-17T03:20:45.735Z,18.00
2022-10-17T03:23:12.442Z,17.99
2022-10-17T03:25:40.081Z,17.97
2022-10-17T03:28:06.896Z,17.97
2022-10-17T03:30:33.619Z,17.95
2022-10-17T03:33:00.624Z,17.94
2022-10-17T03:35:27.820Z,17.93
2022-10-17T03:37:58.159Z,17.92
2022-10-17T03:40:27.192Z,17.92
2022-10-17T03:42:54.269Z,17.91
2022-10-17T03:45:21.674Z,17.89
2022-10-17T03:47:48.859Z,17.88
2022-10-17T03:50:15.835Z,17.87
2022-10-17T03:52:47.929Z,17.86
2022-10-17T03:55:15.510Z,17.85
2022-10-17T03:57:45.442Z,17.85
2022-10-17T04:00:14.777Z,17.83
2022-10-17T04:02:41.612Z,17.81
2022-10-17T04:05:12.635Z,17.80
2022-10-17T04:07:40.586Z,17.78
2022-10-17T04:10:08.246Z,17.78
2022-10-17T04:12:35.249Z,17.74
2022-10-17T04:15:02.071Z,17.74
2022-10-17T04:17:35.776Z,17.73
2022-10-17T04:20:05.947Z,17.71
2022-10-17T04:22:32.688Z,17.70
2022-10-17T04:24:59.495Z,17.69
2022-10-17T04:27:35.031Z,17.69
2022-10-17T04:30:01.869Z,17.68
2022-10-17T04:32:31.443Z,17.66
2022-10-17T04:35:06.658Z,17.66
2022-10-17T04:37:33.589Z,17.64
2022-10-17T04:40:06.241Z,17.64
2022-10-17T04:42:34.394Z,17.64
2022-10-17T04:45:01.295Z,17.62
2022-10-17T04:47:28.223Z,17.61
2022-10-17T04:49:55.824Z,17.60
2022-10-17T04:52:23.027Z,17.59
2022-10-17T04:54:50.326Z,17.58
2022-10-17T04:57:18.760Z,17.55
2022-10-17T04:59:59.066Z,17.54
2022-10-17T05:02:57.944Z,17.53
2022-10-17T05:05:26.265Z,17.50
2022-10-17T05:07:54.181Z,17.49
2022-10-17T05:10:25.063Z,17.48
2022-10-17T05:12:53.356Z,17.48
2022-10-17T05:15:23.180Z,17.47
2022-10-17T05:17:57.353Z,17.45
2022-10-17T05:20:26.478Z,17.44
2022-10-17T05:22:53.621Z,17.43
2022-10-17T05:25:21.007Z,17.41
2022-10-17T05:27:47.716Z,17.40
2022-10-17T05:30:15.100Z,17.39
2022-10-17T05:32:42.141Z,17.38
2022-10-17T05:35:10.990Z,17.37
2022-10-17T05:37:38.652Z,17.37
2022-10-17T05:40:06.166Z,17.37
2022-10-17T05:42:33.371Z,17.36
2022-10-17T05:45:00.300Z,17.35
2022-10-17T05:47:27.550Z,17.33
2022-10-17T05:49:54.519Z,17.33
2022-10-17T05:52:27.637Z,17.31
2022-10-17T05:55:06.561Z,17.31
2022-10-17T05:57:33.556Z,17.26
2022-10-17T06:00:01.199Z,17.11
2022-10-17T06:02:41.041Z,16.91
2022-10-17T06:05:09.044Z,16.72
2022-10-17T06:07:35.947Z,16.54
2022-10-17T06:10:04.307Z,16.44
2022-10-17T06:12:31.564Z,16.34
2022-10-17T06:14:59.208Z,16.24
2022-10-17T06:17:26.626Z,16.14
2022-10-17T06:19:53.305Z,16.06
2022-10-17T06:22:20.089Z,16.02
2022-10-17T06:24:47.167Z,15.99
2022-10-17T06:27:15.083Z,15.98
2022-10-17T06:29:41.803Z,16.02
2022-10-17T06:32:12.552Z,16.03
2022-10-17T06:34:44.307Z,15.90
2022-10-17T06:37:11.203Z,15.89
2022-10-17T06:39:39.737Z,15.89
2022-10-17T06:42:19.748Z,15.90
2022-10-17T06:45:18.718Z,15.93
2022-10-17T06:48:06.516Z,15.92
2022-10-17T06:51:07.252Z,15.87
2022-10-17T06:53:44.135Z,15.78
2022-10-17T06:56:31.331Z,15.70
2022-10-17T06:59:16.873Z,15.75
2022-10-17T07:01:51.504Z,15.79
2022-10-17T07:04:18.437Z,15.82
2022-10-17T07:06:45.383Z,15.89
2022-10-17T07:09:18.935Z,15.92
2022-10-17T07:11:46.031Z,15.87
2022-10-17T07:14:16.827Z,15.85
2022-10-17T07:16:43.655Z,15.84
2022-10-17T07:19:17.991Z,15.84
2022-10-17T07:21:45.147Z,15.82
2022-10-17T07:24:13.108Z,15.88
2022-10-17T07:26:42.789Z,16.07
2022-10-17T07:29:10.513Z,16.20
2022-10-17T07:31:41.706Z,16.39
2022-10-17T07:34:08.465Z,16.54
2022-10-17T07:36:35.350Z,16.64
2022-10-17T07:39:05.080Z,16.75
2022-10-17T07:41:33.176Z,16.90
2022-10-17T07:43:59.985Z,17.11
2022-10-17T07:46:32.605Z,17.38
2022-10-17T07:48:59.676Z,17.46
2022-10-17T07:51:26.916Z,17.61
2022-10-17T07:53:53.648Z,17.79
2022-10-17T07:56:24.606Z,17.92
2022-10-17T07:58:52.326Z,18.07
2022-10-17T08:01:19.202Z,18.14
2022-10-17T08:03:47.155Z,18.31
2022-10-17T08:06:14.577Z,18.52
2022-10-17T08:08:41.830Z,18.64
2022-10-17T08:11:11.471Z,18.73
2022-10-17T08:13:38.486Z,18.96
2022-10-17T08:16:07.545Z,19.07
2022-10-17T08:18:35.420Z,19.14
2022-10-17T08:21:06.203Z,19.17
2022-10-17T08:23:32.997Z,19.27
2022-10-17T08:26:01.007Z,19.43
2022-10-17T08:28:28.074Z,19.52
2022-10-17T08:31:03.051Z,19.60
2022-10-17T08:33:29.759Z,19.74
2022-10-17T08:35:58.784Z,19.81
2022-10-17T08:38:27.773Z,19.97
2022-10-17T08:40:58.156Z,20.04
2022-10-17T08:43:31.229Z,20.08
2022-10-17T08:46:04.051Z,20.18
2022-10-17T08:48:34.539Z,20.27
2022-10-17T08:51:27.856Z,20.29
2022-10-17T08:54:01.579Z,20.32
2022-10-17T08:56:48.528Z,20.30
2022-10-17T08:59:25.807Z,20.37
2022-10-17T09:02:10.772Z,20.44
2022-10-17T09:05:04.312Z,20.50
2022-10-17T09:07:50.193Z,20.60
2022-10-17T09:10:32.188Z,20.70
2022-10-17T09:13:25.017Z,20.78
2022-10-17T09:16:23.290Z,20.85
2022-10-17T09:19:00.002Z,21.06
2022-10-17T09:21:40.378Z,21.16
2022-10-17T09:24:15.804Z,21.33
2022-10-17T09:26:45.300Z,21.37
2022-10-17T09:29:20.590Z,21.43
2022-10-17T09:31:53.913Z,21.49
2022-10-17T09:34:24.044Z,21.56
2022-10-17T09:36:53.611Z,21.60
2022-10-17T09:39:23.819Z,21.60
2022-10-17T09:41:53.412Z,21.61
2022-10-17T09:44:30.815Z,21.63
2022-10-17T09:47:06.603Z,21.68
2022-10-17T09:49:35.688Z,21.75
2022-10-17T09:52:09.580Z,21.82
2022-10-17T09:54:46.816Z,21.85
2022-10-17T09:57:15.068Z,21.90
2022-10-17T09:59:45.291Z,21.97
2022-10-17T10:02:14.663Z,22.19
2022-10-17T10:05:03.881Z,22.21
2022-10-17T10:07:36.488Z,22.30
2022-10-17T10:10:05.894Z,22.23
2022-10-17T10:12:35.357Z,22.26
2022-10-17T10:15:02.187Z,22.32
2022-10-17T10:17:37.600Z,22.33
2022-10-17T10:20:26.112Z,22.36
2022-10-17T10:23:21.407Z,22.40
2022-10-17T10:25:55.707Z,22.40
2022-10-17T10:28:33.664Z,22.39
2022-10-17T10:31:04.720Z,22.45
2022-10-17T10:33:33.956Z,22.46
2022-10-17T10:36:03.644Z,22.44
2022-10-17T10:38:32.430Z,22.48
2022-10-17T10:41:04.986Z,22.55
2022-10-17T10:43:31.740Z,22.63
2022-10-17T10:45:58.551Z,22.67
2022-10-17T10:48:30.723Z,22.76
2022-10-17T10:51:04.688Z,22.72
2022-10-17T10:53:38.460Z,22.74
2022-10-17T10:56:24.020Z,22.81
2022-10-17T10:59:08.919Z,22.87
2022-10-17T11:01:54.004Z,22.90
2022-10-17T11:04:26.676Z,22.96
2022-10-17T11:06:58.267Z,23.08
2022-10-17T11:09:43.731Z,23.16
2022-10-17T11:12:12.258Z,23.20
2022-10-17T11:14:53.979Z,23.20
2022-10-17T11:17:38.759Z,23.21
2022-10-17T11:20:20.739Z,23.26
2022-10-17T11:22:57.661Z,23.29
2022-10-17T11:25:41.240Z,23.37
2022-10-17T11:28:17.507Z,23.45
2022-10-17T11:30:51.761Z,23.55
2022-10-17T11:33:25.034Z,23.66
2022-10-17T11:35:53.660Z,23.76
2022-10-17T11:38:41.993Z,23.85
2022-10-17T11:41:13.745Z,23.94
2022-10-17T11:43:45.799Z,24.04
2022-10-17T11:46:17.384Z,24.11
2022-10-17T11:49:11.790Z,24.22
2022-10-17T11:52:44.458Z,24.35
2022-10-17T11:55:26.098Z,24.39
2022-10-17T11:58:30.810Z,24.21
2022-10-17T12:01:04.311Z,24.36
2022-10-17T12:03:49.930Z,24.53
2022-10-17T12:07:12.964Z,24.66
2022-10-17T12:09:46.197Z,24.66
2022-10-17T12:12:25.902Z,24.66
2022-10-17T12:14:53.406Z,24.65
2022-10-17T12:17:28.442Z,24.62
2022-10-17T12:20:21.346Z,24.59
2022-10-17T12:22:49.604Z,24.58
2022-10-17T12:25:32.785Z,24.48
2022-10-17T12:28:08.232Z,24.48
2022-10-17T12:30:35.259Z,24.48
2022-10-17T12:33:46.012Z,24.47
2022-10-17T12:36:18.956Z,24.46
2022-10-17T12:38:50.259Z,24.45
2022-10-17T12:41:19.307Z,24.43
2022-10-17T12:46:45.202Z,24.54
2022-10-17T12:49:52.026Z,24.58
2022-10-17T12:52:26.800Z,24.54
2022-10-17T12:55:00.518Z,24.54
2022-10-17T12:57:47.206Z,24.58
2022-10-17T13:00:19.791Z,24.56
2022-10-17T13:02:47.679Z,24.61
2022-10-17T13:05:17.846Z,24.58
2022-10-17T13:07:44.686Z,24.63
2022-10-17T13:10:24.088Z,24.57
2022-10-17T13:12:52.258Z,24.56
2022-10-17T13:15:20.434Z,24.58
2022-10-17T13:17:56.979Z,24.56
2022-10-17T13:20:30.581Z,24.55
2022-10-17T13:22:59.959Z,24.61
2022-10-17T13:25:27.927Z,24.65
2022-10-17T13:28:07.176Z,24.70
2022-10-17T13:30:37.239Z,24.74
2022-10-17T13:33:07.712Z,24.71
2022-10-17T13:38:28.254Z,24.72
2022-10-17T13:41:01.656Z,24.61
2022-10-17T13:43:38.887Z,24.68
2022-10-17T13:46:25.455Z,24.69
2022-10-17T13:48:53.607Z,24.59
2022-10-17T13:51:20.350Z,24.63
2022-10-17T13:53:47.049Z,24.69
2022-10-17T13:56:34.473Z,24.78
2022-10-17T13:59:07.642Z,24.79
2022-10-17T14:01:35.181Z,24.88
2022-10-17T14:04:19.540Z,24.92
2022-10-17T14:06:52.213Z,24.81
2022-10-17T14:09:23.898Z,24.73
2022-10-17T14:12:17.039Z,24.73
2022-10-17T14:15:09.215Z,24.66
2022-10-17T14:17:36.099Z,24.70
2022-10-17T14:20:34.465Z,24.72
2022-10-17T14:23:10.795Z,24.67
2022-10-17T14:25:40.388Z,24.67
2022-10-17T14:28:14.514Z,24.61
2022-10-17T14:31:01.677Z,24.58
2022-10-17T14:33:31.169Z,24.48
2022-10-17T14:35:59.534Z,24.37
2022-10-17T14:38:28.299Z,24.31
2022-10-17T14:41:42.288Z,24.17
2022-10-17T14:44:18.033Z,24.03
2022-10-17T14:46:50.536Z,23.86
2022-10-17T14:49:28.400Z,23.67
2022-10-17T14:52:34.358Z,23.47
2022-10-17T14:57:44.704Z,23.16
2022-10-17T15:00:16.688Z,23.02
2022-10-17T15:02:44.688Z,22.91
2022-10-17T15:05:13.423Z,22.86
2022-10-17T15:07:41.096Z,22.86
2022-10-17T15:10:22.617Z,22.88
2022-10-17T15:12:58.756Z,22.90
2022-10-17T15:15:31.924Z,22.84
2022-10-17T15:17:58.626Z,22.78
2022-10-17T15:20:28.017Z,22.70
2022-10-17T15:22:55.171Z,22.65
2022-10-17T15:25:21.976Z,22.60
2022-10-17T15:27:48.848Z,22.49
2022-10-17T15:30:21.689Z,22.38
2022-10-17T15:32:49.348Z,22.29
2022-10-17T15:35:16.384Z,22.23
2022-10-17T15:37:43.907Z,22.12
2022-10-17T15:40:15.930Z,21.97
2022-10-17T15:42:42.686Z,21.87
2022-10-17T15:45:17.501Z,21.83
2022-10-17T15:47:50.854Z,21.83
2022-10-17T15:50:18.238Z,21.84
2022-10-17T15:52:47.048Z,21.93
2022-10-17T15:55:13.969Z,21.99
2022-10-17T15:57:42.619Z,22.08
2022-10-17T16:00:19.439Z,22.13
2022-10-17T16:02:47.047Z,22.11
2022-10-17T16:05:17.444Z,22.01
2022-10-17T16:07:46.639Z,21.95
2022-10-17T16:10:14.292Z,21.88
2022-10-17T16:12:44.069Z,21.79
2022-10-17T16:15:15.844Z,21.60
2022-10-17T16:17:43.893Z,21.53
2022-10-17T16:20:12.501Z,21.43
2022-10-17T16:22:42.124Z,21.33
2022-10-17T16:25:29.891Z,21.18
2022-10-17T16:27:58.381Z,21.02
2022-10-17T16:30:26.991Z,20.90
2022-10-17T16:32:54.791Z,20.80
2022-10-17T16:35:24.557Z,20.63
2022-10-17T16:37:51.346Z,20.53
2022-10-17T16:40:18.563Z,20.50
2022-10-17T16:42:45.288Z,20.37
2022-10-17T16:45:20.367Z,20.25
2022-10-17T16:47:47.421Z,20.13
2022-10-17T16:50:14.877Z,20.09
2022-10-17T16:52:41.968Z,20.11
2022-10-17T16:55:09.946Z,20.12
2022-10-17T16:57:36.795Z,20.08
2022-10-17T17:00:05.868Z,19.94
2022-10-17T17:02:32.995Z,19.76
2022-10-17T17:05:00.498Z,19.72
2022-10-17T17:07:29.514Z,19.80
2022-10-17T17:09:56.724Z,19.91
2022-10-17T17:12:23.620Z,19.99
2022-10-17T17:14:50.535Z,20.06
2022-10-17T17:17:30.216Z,20.12
2022-10-17T17:20:04.463Z,20.19
2022-10-17T17:22:31.365Z,20.24
2022-10-17T17:24:58.041Z,20.28
2022-10-17T17:27:27.791Z,20.31
2022-10-17T17:29:54.712Z,20.35
2022-10-17T17:32:21.679Z,20.38
2022-10-17T17:34:48.399Z,20.41
2022-10-17T17:37:15.371Z,20.44
2022-10-17T17:39:42.956Z,20.46
2022-10-17T17:42:09.608Z,20.47
2022-10-17T17:44:36.323Z,20.49
2022-10-17T17:47:03.121Z,20.50
2022-10-17T17:49:29.779Z,20.50
2022-10-17T17:51:56.557Z,20.52
2022-10-17T17:54:23.235Z,20.52
2022-10-17T17:56:50.002Z,20.51
2022-10-17T17:59:16.714Z,20.51
2022-10-17T18:01:43.733Z,20.51
2022-10-17T18:04:11.599Z,20.50
2022-10-17T18:06:38.809Z,20.49
2022-10-17T18:09:06.672Z,20.49
2022-10-17T18:11:33.772Z,20.49
2022-10-17T18:14:02.788Z,20.48
2022-10-17T18:16:32.735Z,20.47
2022-10-17T18:19:04.140Z,20.46
2022-10-17T18:21:34.174Z,20.44
2022-10-17T18:24:00.984Z,20.42
2022-10-17T18:26:28.557Z,20.41
2022-10-17T18:28:55.337Z,20.40
2022-10-17T18:31:28.895Z,20.39
2022-10-17T18:33:57.083Z,20.35
2022-10-17T18:36:26.023Z,20.35
2022-10-17T18:38:53.720Z,20.34
2022-10-17T18:41:22.499Z,20.32
2022-10-17T18:43:50.244Z,20.31
2022-10-17T18:46:19.824Z,20.30
2022-10-17T18:48:47.628Z,20.28
2022-10-17T18:51:16.107Z,20.26
2022-10-17T18:53:44.680Z,20.25
2022-10-17T18:56:11.877Z,20.24
2022-10-17T18:58:39.124Z,20.22
2022-10-17T19:01:09.540Z,20.19
2022-10-17T19:03:36.968Z,20.18
2022-10-17T19:06:13.122Z,20.17
2022-10-17T19:08:40.716Z,20.16
2022-10-17T19:11:15.690Z,20.13
2022-10-17T19:16:22.500Z,20.10
2022-10-17T19:18:54.194Z,20.08
2022-10-17T19:21:22.316Z,20.07
2022-10-17T19:24:00.411Z,20.04
2022-10-17T19:26:29.805Z,20.03
2022-10-17T19:28:57.041Z,20.01
2022-10-17T19:31:27.166Z,19.99
2022-10-17T19:33:54.742Z,20.07
2022-10-17T19:36:25.408Z,19.99
2022-10-17T19:38:55.188Z,19.95
2022-10-17T19:41:22.747Z,19.93
2022-10-17T19:43:49.511Z,19.91
2022-10-17T19:46:23.010Z,19.88
2022-10-17T19:48:50.882Z,19.86
2022-10-17T19:51:19.580Z,19.87
2022-10-17T19:53:47.057Z,19.85
2022-10-17T19:56:13.873Z,19.83
2022-10-17T19:58:46.717Z,19.83
2022-10-17T20:01:20.785Z,19.80
2022-10-17T20:03:47.745Z,19.81
2022-10-17T20:06:14.978Z,19.79
2022-10-17T20:08:41.793Z,19.78
2022-10-17T20:11:11.466Z,19.76
2022-10-17T20:13:38.444Z,19.76
2022-10-17T20:16:06.158Z,19.73
2022-10-17T20:18:33.391Z,19.71
2022-10-17T20:21:05.349Z,19.70
2022-10-17T20:23:32.435Z,19.69
2022-10-17T20:26:13.654Z,19.68
2022-10-17T20:28:48.786Z,19.67
2022-10-17T20:31:15.949Z,19.66
2022-10-17T20:33:42.713Z,19.65
2022-10-17T20:36:10.705Z,19.63
2022-10-17T20:38:37.675Z,19.62
2022-10-17T20:41:06.819Z,19.62
2022-10-17T20:43:34.564Z,19.61
2022-10-17T20:46:09.803Z,19.59
2022-10-17T20:48:55.268Z,19.59
2022-10-17T20:51:22.045Z,19.59
2022-10-17T20:53:49.135Z,19.58
2022-10-17T20:56:34.979Z,19.57
2022-10-17T20:59:04.840Z,19.56
2022-10-17T21:01:32.840Z,19.56
2022-10-17T21:04:15.910Z,19.55
2022-10-17T21:06:52.121Z,19.54
2022-10-17T21:09:19.252Z,19.54
2022-10-17T21:11:46.255Z,19.52
2022-10-17T21:14:13.043Z,19.53
2022-10-17T21:16:40.253Z,19.51
2022-10-17T21:19:07.022Z,19.51
2022-10-17T21:21:36.089Z,19.50
2022-10-17T21:24:05.784Z,19.49
2022-10-17T21:26:34.101Z,19.50
2022-10-17T21:29:05.518Z,19.49
2022-10-17T21:31:34.241Z,19.48
2022-10-17T21:34:05.928Z,19.46
2022-10-17T21:36:32.888Z,19.47
2022-10-17T21:38:59.569Z,19.46
2022-10-17T21:41:28.141Z,19.44
2022-10-17T21:43:56.564Z,19.43
2022-10-17T21:46:23.799Z,19.42
2022-10-17T21:48:51.881Z,19.42
2022-10-17T21:51:21.614Z,19.40
2022-10-17T21:53:48.945Z,19.41
2022-10-17T21:56:20.852Z,19.37
2022-10-17T21:58:48.612Z,19.36
2022-10-17T22:01:19.137Z,19.35
2022-10-17T22:03:51.040Z,19.33
2022-10-17T22:06:39.227Z,19.33
2022-10-17T22:09:11.396Z,19.32
2022-10-17T22:11:38.379Z,19.31
2022-10-17T22:14:07.424Z,19.29
2022-10-17T22:16:34.959Z,19.28
2022-10-17T22:19:10.034Z,19.26
2022-10-17T22:21:38.516Z,19.24
2022-10-17T22:24:07.882Z,19.23
2022-10-17T22:26:36.445Z,19.23
2022-10-17T22:29:04.666Z,19.21
2022-10-17T22:31:31.558Z,19.19
2022-10-17T22:33:58.222Z,19.20
2022-10-17T22:36:25.471Z,19.18
2022-10-17T22:38:52.187Z,19.16
2022-10-17T22:41:19.017Z,19.16
2022-10-17T22:43:45.685Z,19.14
2022-10-17T22:46:13.566Z,19.13
2022-10-17T22:48:40.377Z,19.11
2022-10-17T22:51:07.319Z,19.09
2022-10-17T22:53:35.135Z,19.08
2022-10-17T22:56:03.286Z,19.07
2022-10-17T22:58:30.886Z,19.04
2022-10-17T23:00:58.118Z,19.04
2022-10-17T23:03:26.700Z,19.02
2022-10-17T23:05:53.662Z,19.00
2022-10-17T23:08:20.500Z,18.99
2022-10-17T23:10:47.631Z,18.98
2022-10-17T23:13:15.045Z,18.97
2022-10-17T23:15:42.310Z,18.97
2022-10-17T23:18:09.861Z,18.94
2022-10-17T23:20:37.845Z,18.93
2022-10-17T23:23:04.923Z,18.92
2022-10-17T23:25:33.866Z,18.90
2022-10-17T23:28:01.069Z,18.90
2022-10-17T23:30:28.031Z,18.87
2022-10-17T23:32:54.744Z,18.87
2022-10-17T23:35:21.436Z,18.86
2022-10-17T23:37:48.049Z,18.84
2022-10-17T23:40:14.752Z,18.82
2022-10-17T23:42:41.375Z,18.81
2022-10-17T23:45:08.835Z,18.81
2022-10-17T23:47:35.508Z,18.79
2022-10-17T23:50:02.335Z,18.78
2022-10-17T23:52:29.001Z,18.77
2022-10-17T23:54:55.764Z,18.76
2022-10-17T23:57:22.432Z,18.74
2022-10-17T23:59:49.242Z,18.71
